createdAt,value
2022-08-09T00:08:33.187Z,984.88
2022-08-09T00:20:34.158Z,984.91
2022-08-09T00:32:33.746Z,984.85
2022-08-09T00:44:34.635Z,984.84
2022-08-09T00:56:34.669Z,984.84
2022-08-09T01:08:35.083Z,984.77
2022-08-09T01:20:35.557Z,984.79
2022-08-09T01:32:36.113Z,984.72
2022-08-09T01:44:36.476Z,984.74
2022-08-09T01:56:36.919Z,984.77
2022-08-09T02:08:57.119Z,984.81
2022-08-09T02:20:37.807Z,984.79
2022-08-09T02:32:38.290Z,984.92
2022-08-09T02:44:38.734Z,984.91
2022-08-09T02:56:39.167Z,984.72
2022-08-09T03:08:39.641Z,984.70
2022-08-09T03:20:40.078Z,984.61
2022-08-09T03:32:40.557Z,984.69
2022-08-09T03:44:40.982Z,984.64
2022-08-09T03:56:41.731Z,984.71
2022-08-09T04:08:41.904Z,984.60
2022-08-09T04:20:42.365Z,984.59
2022-08-09T04:32:42.894Z,984.53
2022-08-09T04:44:49.106Z,984.53
2022-08-09T04:56:43.743Z,984.62
2022-08-09T05:08:48.030Z,984.64
2022-08-09T05:20:44.744Z,984.63
2022-08-09T05:32:45.074Z,984.57
2022-08-09T05:44:45.536Z,984.68
2022-08-09T05:56:55.118Z,984.65
2022-08-09T06:08:52.579Z,984.59
2022-08-09T06:20:54.128Z,984.57
2022-08-09T06:33:00.900Z,984.52
2022-08-09T06:44:54.316Z,984.64
2022-08-09T06:56:48.278Z,984.62
2022-08-09T07:08:49.604Z,984.66
2022-08-09T07:20:49.200Z,984.74
2022-08-09T07:32:51.569Z,984.67
2022-08-09T07:44:52.347Z,984.69
2022-08-09T07:56:50.512Z,984.73
2022-08-09T08:09:04.023Z,984.62
2022-08-09T08:20:51.454Z,984.58
2022-08-09T08:32:53.918Z,984.75
2022-08-09T08:44:52.371Z,984.66
2022-08-09T08:56:52.828Z,984.77
2022-08-09T09:08:53.260Z,984.79
2022-08-09T09:20:53.686Z,984.72
2022-08-09T09:32:54.145Z,984.81
2022-08-09T09:44:54.653Z,984.93
2022-08-09T09:58:00.879Z,984.81
2022-08-09T10:08:57.575Z,984.90
2022-08-09T10:20:56.002Z,984.68
2022-08-09T10:32:56.537Z,984.67
2022-08-09T10:44:56.933Z,984.73
2022-08-09T10:56:57.360Z,984.69
2022-08-09T11:09:15.547Z,984.69
2022-08-09T11:20:58.307Z,984.77
2022-08-09T11:32:58.979Z,984.69
2022-08-09T11:44:59.189Z,984.42
2022-08-09T11:56:59.652Z,984.40
2022-08-09T12:09:01.140Z,984.34
2022-08-09T12:21:02.806Z,984.36
2022-08-09T12:33:01.037Z,984.26
2022-08-09T12:45:01.499Z,984.19
2022-08-09T12:57:01.952Z,984.06
2022-08-09T13:09:02.386Z,984.10
2022-08-09T13:22:34.171Z,983.93
2022-08-09T13:33:03.295Z,984.09
2022-08-09T13:45:03.787Z,983.90
2022-08-09T13:57:06.555Z,983.79
2022-08-09T14:09:05.041Z,983.74
2022-08-09T14:21:05.831Z,983.84
2022-08-09T14:33:11.195Z,983.75
2022-08-09T14:46:46.150Z,983.96
2022-08-09T14:57:06.526Z,983.82
2022-08-09T15:09:06.959Z,983.89
2022-08-09T15:22:00.682Z,983.83
2022-08-09T15:33:08.029Z,983.78
2022-08-09T15:45:08.342Z,983.74
2022-08-09T15:57:09.461Z,983.76
2022-08-09T16:09:09.285Z,983.93
2022-08-09T16:21:09.708Z,983.80
2022-08-09T16:33:10.186Z,983.74
2022-08-09T16:45:10.638Z,983.62
2022-08-09T16:57:11.116Z,983.67
2022-08-09T17:09:45.708Z,983.74
2022-08-09T17:21:11.960Z,983.90
2022-08-09T17:33:22.228Z,983.82
2022-08-09T17:45:15.890Z,983.85
2022-08-09T17:57:20.786Z,984.09
2022-08-09T18:09:13.774Z,984.29
2022-08-09T18:21:23.151Z,984.50
2022-08-09T18:33:15.144Z,984.68
2022-08-09T18:45:21.456Z,985.04
2022-08-09T18:57:15.625Z,985.16
2022-08-09T19:09:20.528Z,985.30
2022-08-09T19:21:16.583Z,985.41
2022-08-09T19:33:19.391Z,985.49
2022-08-09T19:45:17.751Z,985.47
2022-08-09T19:57:17.949Z,985.45
2022-08-09T20:09:20.599Z,985.55
2022-08-09T20:21:18.838Z,985.66
2022-08-09T20:33:19.290Z,985.61
2022-08-09T20:45:59.668Z,985.67
2022-08-09T20:57:20.212Z,985.68
2022-08-09T21:09:32.700Z,985.69
2022-08-09T21:21:21.113Z,985.72
2022-08-09T21:33:21.536Z,985.69
2022-08-09T21:45:22.051Z,985.72
2022-08-09T21:57:36.847Z,985.69
2022-08-09T22:09:23.744Z,985.69
2022-08-09T22:21:24.157Z,985.77
2022-08-09T22:33:23.846Z,985.82
2022-08-09T22:48:16.237Z,985.79
2022-08-09T22:57:31.538Z,985.73
2022-08-09T23:09:25.195Z,985.83
2022-08-09T23:21:29.921Z,985.77
2022-08-09T23:33:26.106Z,985.56
2022-08-09T23:45:37.506Z,985.56
2022-08-09T23:57:27.008Z,985.46
